Time;durP1;ratioP1;P1;durP2;ratioP2;P2;SDS_P1;SDS_P2;PMS_P1;PMS_P2;Temp;Humidity;BMP_temperature;BMP_pressure;BME280_temperature;BME280_humidity;BME280_pressure;Samples;Min_cycle;Max_cycle;Signal;HPM_P1;HPM_P2
2023/05/24 00:00:12;;;;;;;0.60;0.60;;;;;;;;;;5015413;28;20294;-92
2023/05/24 00:02:42;;;;;;;0.80;0.80;;;;;;;;;;5014970;28;20212;-93
2023/05/24 00:05:13;;;;;;;3.33;3.23;;;;;;;;;;5014871;28;20215;-93
2023/05/24 00:07:42;;;;;;;2.17;2.10;;;;;;;;;;5014632;28;20190;-92
2023/05/24 00:10:11;;;;;;;0.83;0.83;;;;;;;;;;5015357;28;20200;-93
2023/05/24 00:12:40;;;;;;;0.70;0.70;;;;;;;;;;5015280;28;20263;-92
2023/05/24 00:15:09;;;;;;;0.70;0.70;;;;;;;;;;5014780;28;20196;-93
2023/05/24 00:17:39;;;;;;;7.10;1.47;;;;;;;;;;5014489;28;20227;-93
2023/05/24 00:20:12;;;;;;;0.93;0.93;;;;;;;;;;5014285;28;20234;-93
2023/05/24 00:22:42;;;;;;;0.83;0.83;;;;;;;;;;5014205;28;20282;-93
2023/05/24 00:25:10;;;;;;;0.90;0.90;;;;;;;;;;5014117;28;20203;-93
2023/05/24 00:27:39;;;;;;;3.17;1.30;;;;;;;;;;5012554;28;20246;-93
2023/05/24 00:30:08;;;;;;;1.00;1.00;;;;;;;;;;5014615;28;20216;-94
2023/05/24 00:32:37;;;;;;;0.80;0.80;;;;;;;;;;5014900;28;20206;-93
2023/05/24 00:35:06;;;;;;;0.70;0.70;;;;;;;;;;5014923;28;20207;-93
2023/05/24 00:37:36;;;;;;;1.33;1.07;;;;;;;;;;5014503;28;20226;-93
2023/05/24 00:40:05;;;;;;;0.97;0.97;;;;;;;;;;5013989;28;20196;-94
2023/05/24 00:42:34;;;;;;;2.93;1.43;;;;;;;;;;5014888;28;20204;-93
2023/05/24 00:45:02;;;;;;;1.30;1.20;;;;;;;;;;5014546;28;20199;-93
2023/05/24 00:47:31;;;;;;;0.80;0.80;;;;;;;;;;5014428;28;20204;-93
2023/05/24 00:50:00;;;;;;;1.43;1.43;;;;;;;;;;5014540;28;20199;-93
2023/05/24 00:52:28;;;;;;;0.70;0.70;;;;;;;;;;5014196;28;20204;-86
2023/05/24 00:54:58;;;;;;;0.60;0.60;;;;;;;;;;5012328;28;20203;-86
2023/05/24 00:57:27;;;;;;;0.70;0.70;;;;;;;;;;5012077;28;20215;-86
2023/05/24 00:59:57;;;;;;;0.97;0.97;;;;;;;;;;5012292;28;20196;-86
2023/05/24 01:02:25;;;;;;;2.23;1.17;;;;;;;;;;5012368;28;20200;-86
2023/05/24 01:04:56;;;;;;;2.90;2.80;;;;;;;;;;5012164;28;20207;-86
2023/05/24 01:07:27;;;;;;;0.90;0.90;;;;;;;;;;5012643;28;20266;-86
2023/05/24 01:10:03;;;;;;;1.67;1.57;;;;;;;;;;5012200;28;20204;-86
2023/05/24 01:12:44;;;;;;;0.70;0.70;;;;;;;;;;5011979;28;20230;-86
2023/05/24 01:15:18;;;;;;;0.70;0.70;;;;;;;;;;5012052;28;20202;-86
2023/05/24 01:17:50;;;;;;;5.20;1.27;;;;;;;;;;5012485;28;20215;-86
2023/05/24 01:20:19;;;;;;;5.80;2.80;;;;;;;;;;5011983;28;20236;-86
2023/05/24 01:23:04;;;;;;;0.97;0.97;;;;;;;;;;5012046;28;20239;-87
2023/05/24 01:25:41;;;;;;;8.67;2.53;;;;;;;;;;5012179;28;20200;-86
2023/05/24 01:28:12;;;;;;;1.00;1.00;;;;;;;;;;4992295;28;20230;-87
2023/05/24 01:30:43;;;;;;;0.83;0.83;;;;;;;;;;4992522;28;20239;-86
2023/05/24 01:33:12;;;;;;;5.73;1.73;;;;;;;;;;4992625;28;20208;-86
2023/05/24 01:35:41;;;;;;;1.50;1.40;;;;;;;;;;4992940;28;20206;-86
2023/05/24 01:38:10;;;;;;;1.80;1.73;;;;;;;;;;4991750;28;20311;-86
2023/05/24 01:40:40;;;;;;;0.70;0.70;;;;;;;;;;4992707;28;20196;-86
2023/05/24 01:43:16;;;;;;;0.70;0.70;;;;;;;;;;4992392;28;20200;-85
2023/05/24 01:45:49;;;;;;;1.50;1.47;;;;;;;;;;4992176;28;20203;-86
2023/05/24 01:48:21;;;;;;;4.10;2.30;;;;;;;;;;4992987;28;20256;-86
2023/05/24 01:50:53;;;;;;;0.70;0.70;;;;;;;;;;4992540;28;20208;-86
2023/05/24 01:53:25;;;;;;;1.43;1.43;;;;;;;;;;4992367;28;20208;-87
2023/05/24 01:55:55;;;;;;;0.70;0.70;;;;;;;;;;4991866;28;20204;-86
2023/05/24 01:58:28;;;;;;;3.20;2.20;;;;;;;;;;4992776;28;20230;-93
2023/05/24 02:00:56;;;;;;;0.90;0.90;;;;;;;;;;4994322;28;20240;-93
2023/05/24 02:03:25;;;;;;;1.10;1.10;;;;;;;;;;4994097;28;20201;-94
2023/05/24 02:05:53;;;;;;;0.70;0.70;;;;;;;;;;4994368;28;20267;-93
2023/05/24 02:08:22;;;;;;;0.70;0.70;;;;;;;;;;4994768;28;20197;-93
2023/05/24 02:10:50;;;;;;;0.80;0.80;;;;;;;;;;4993822;28;20303;-93
2023/05/24 02:13:19;;;;;;;1.43;1.43;;;;;;;;;;4994976;28;20208;-93
2023/05/24 02:15:50;;;;;;;2.30;1.30;;;;;;;;;;4997478;28;20218;-86
2023/05/24 02:18:19;;;;;;;0.70;0.70;;;;;;;;;;4997595;28;20216;-92
2023/05/24 02:20:47;;;;;;;1.10;1.10;;;;;;;;;;4997758;28;20205;-93
2023/05/24 02:23:16;;;;;;;0.60;0.60;;;;;;;;;;4997436;28;20219;-93
2023/05/24 02:25:44;;;;;;;1.27;1.17;;;;;;;;;;4997240;28;20204;-94
2023/05/24 02:28:17;;;;;;;3.40;2.63;;;;;;;;;;5016867;28;20215;-94
2023/05/24 02:30:50;;;;;;;0.70;0.70;;;;;;;;;;5017346;28;20214;-93
2023/05/24 02:33:20;;;;;;;0.70;0.70;;;;;;;;;;5015486;28;20204;-86
2023/05/24 02:35:48;;;;;;;0.70;0.70;;;;;;;;;;5014930;28;20245;-86
2023/05/24 02:38:17;;;;;;;1.10;1.10;;;;;;;;;;5014824;28;20215;-86
2023/05/24 02:40:45;;;;;;;0.70;0.70;;;;;;;;;;5015151;28;20203;-86
2023/05/24 02:43:14;;;;;;;0.90;0.90;;;;;;;;;;5014843;28;20207;-86
2023/05/24 02:45:42;;;;;;;0.70;0.70;;;;;;;;;;5014875;28;20206;-86
2023/05/24 02:48:11;;;;;;;4.63;4.43;;;;;;;;;;5014826;28;20195;-86
2023/05/24 02:50:41;;;;;;;0.80;0.80;;;;;;;;;;5014353;28;20192;-86
2023/05/24 02:53:10;;;;;;;0.80;0.80;;;;;;;;;;5014616;28;20202;-87
2023/05/24 02:55:39;;;;;;;24.33;2.20;;;;;;;;;;5014541;28;20211;-86
2023/05/24 02:58:07;;;;;;;5.40;2.90;;;;;;;;;;5014962;28;20222;-86
2023/05/24 03:00:37;;;;;;;4.70;1.93;;;;;;;;;;5014343;28;20202;-86
2023/05/24 03:03:07;;;;;;;3.93;2.00;;;;;;;;;;5014589;28;20199;-86
2023/05/24 03:05:35;;;;;;;0.70;0.70;;;;;;;;;;5014700;28;20212;-86
2023/05/24 03:08:06;;;;;;;0.80;0.80;;;;;;;;;;5014649;28;20203;-86
2023/05/24 03:10:34;;;;;;;0.80;0.80;;;;;;;;;;5014564;28;20200;-86
2023/05/24 03:13:03;;;;;;;1.73;1.63;;;;;;;;;;5014738;28;20196;-86
2023/05/24 03:15:33;;;;;;;1.23;1.23;;;;;;;;;;5014555;28;20207;-86
2023/05/24 03:18:02;;;;;;;0.80;0.80;;;;;;;;;;5014060;28;20231;-86
2023/05/24 03:20:32;;;;;;;0.77;0.77;;;;;;;;;;5014442;28;20230;-86
2023/05/24 03:23:01;;;;;;;0.70;0.70;;;;;;;;;;5014168;28;20200;-86
2023/05/24 03:25:32;;;;;;;0.83;0.83;;;;;;;;;;5013457;28;20238;-87
2023/05/24 03:28:01;;;;;;;0.90;0.90;;;;;;;;;;5013979;28;20243;-86
2023/05/24 03:30:29;;;;;;;0.73;0.73;;;;;;;;;;5013876;28;20211;-86
2023/05/24 03:32:58;;;;;;;0.70;0.70;;;;;;;;;;5013715;28;20207;-86
2023/05/24 03:35:27;;;;;;;1.00;1.00;;;;;;;;;;5014059;28;20208;-93
2023/05/24 03:37:55;;;;;;;4.70;4.50;;;;;;;;;;5015815;28;20212;-94
2023/05/24 03:40:27;;;;;;;1.57;1.57;;;;;;;;;;5015559;28;20251;-86
2023/05/24 03:42:57;;;;;;;0.70;0.70;;;;;;;;;;5013503;28;20219;-86
2023/05/24 03:45:26;;;;;;;5.63;1.33;;;;;;;;;;5013912;28;20204;-86
2023/05/24 03:48:06;;;;;;;0.70;0.70;;;;;;;;;;5013399;28;20202;-86
2023/05/24 03:50:35;;;;;;;0.70;0.70;;;;;;;;;;5013224;28;20200;-86
2023/05/24 03:53:03;;;;;;;1.00;1.00;;;;;;;;;;5013744;28;20212;-86
2023/05/24 03:55:32;;;;;;;0.73;0.73;;;;;;;;;;5013885;28;20223;-86
2023/05/24 03:58:02;;;;;;;1.53;1.53;;;;;;;;;;5013079;28;20225;-86
2023/05/24 04:00:31;;;;;;;1.10;1.10;;;;;;;;;;5013456;28;20199;-86
2023/05/24 04:03:00;;;;;;;0.70;0.70;;;;;;;;;;5013313;28;20265;-86
2023/05/24 04:05:29;;;;;;;0.87;0.87;;;;;;;;;;5013415;28;20211;-86
2023/05/24 04:07:58;;;;;;;0.70;0.70;;;;;;;;;;5012886;28;20222;-86
2023/05/24 04:10:29;;;;;;;0.87;0.87;;;;;;;;;;5013127;28;20211;-86
2023/05/24 04:12:59;;;;;;;0.60;0.60;;;;;;;;;;5012968;28;20211;-87
2023/05/24 04:15:29;;;;;;;0.70;0.70;;;;;;;;;;5013473;28;20294;-87
2023/05/24 04:17:59;;;;;;;0.70;0.70;;;;;;;;;;5012865;28;20226;-86
2023/05/24 04:20:30;;;;;;;1.27;1.27;;;;;;;;;;5012874;28;20204;-87
2023/05/24 04:23:00;;;;;;;0.70;0.70;;;;;;;;;;5012891;28;20203;-86
2023/05/24 04:25:28;;;;;;;6.37;2.87;;;;;;;;;;5013124;28;20258;-86
2023/05/24 04:27:57;;;;;;;1.60;0.80;;;;;;;;;;5012739;28;20274;-87
2023/05/24 04:30:28;;;;;;;3.17;2.57;;;;;;;;;;5013306;28;20261;-86
2023/05/24 04:32:58;;;;;;;3.77;1.70;;;;;;;;;;5012823;28;20253;-86
2023/05/24 04:35:27;;;;;;;1.20;1.17;;;;;;;;;;5012927;28;20204;-86
2023/05/24 04:37:56;;;;;;;0.70;0.70;;;;;;;;;;5012229;28;20219;-86
2023/05/24 04:40:24;;;;;;;0.70;0.70;;;;;;;;;;5012852;28;20207;-86
2023/05/24 04:42:53;;;;;;;1.90;1.83;;;;;;;;;;5012823;28;20210;-86
2023/05/24 04:45:22;;;;;;;5.40;2.40;;;;;;;;;;5012980;28;20299;-86
2023/05/24 04:47:50;;;;;;;2.97;2.40;;;;;;;;;;5012458;28;20208;-86
2023/05/24 04:50:20;;;;;;;1.10;1.10;;;;;;;;;;5012771;28;20200;-86
2023/05/24 04:52:48;;;;;;;1.80;1.63;;;;;;;;;;5012699;28;20234;-86
2023/05/24 04:55:17;;;;;;;2.37;1.80;;;;;;;;;;5011786;28;20192;-86
2023/05/24 04:57:46;;;;;;;1.50;1.40;;;;;;;;;;5012504;28;20239;-86
2023/05/24 05:00:17;;;;;;;2.60;1.93;;;;;;;;;;5012646;28;20188;-86
2023/05/24 05:02:46;;;;;;;2.67;1.30;;;;;;;;;;5012241;28;20195;-86
2023/05/24 05:05:16;;;;;;;2.40;1.60;;;;;;;;;;5012622;28;20230;-86
2023/05/24 05:07:48;;;;;;;0.70;0.70;;;;;;;;;;5013024;28;20203;-85
2023/05/24 05:10:17;;;;;;;1.10;1.10;;;;;;;;;;5012319;28;20196;-86
2023/05/24 05:12:46;;;;;;;0.77;0.77;;;;;;;;;;5012030;28;20198;-86
2023/05/24 05:15:18;;;;;;;3.13;1.90;;;;;;;;;;5012286;28;20204;-86
2023/05/24 05:17:49;;;;;;;0.70;0.70;;;;;;;;;;5012506;28;20207;-86
2023/05/24 05:20:18;;;;;;;1.00;1.00;;;;;;;;;;5011780;28;20242;-86
2023/05/24 05:22:51;;;;;;;1.67;1.57;;;;;;;;;;5012119;28;20235;-86
2023/05/24 05:25:25;;;;;;;1.10;1.10;;;;;;;;;;5012191;28;20251;-86
2023/05/24 05:27:53;;;;;;;1.00;1.00;;;;;;;;;;5009328;28;20243;-86
2023/05/24 05:30:22;;;;;;;5.00;2.33;;;;;;;;;;5012663;28;20204;-86
2023/05/24 05:32:50;;;;;;;6.97;1.57;;;;;;;;;;5012807;28;20199;-92
2023/05/24 05:35:19;;;;;;;4.33;2.93;;;;;;;;;;5015317;28;20204;-91
2023/05/24 05:37:49;;;;;;;13.07;2.40;;;;;;;;;;5017094;28;20219;-89
2023/05/24 05:40:18;;;;;;;6.53;3.37;;;;;;;;;;5017261;28;20219;-89
2023/05/24 05:42:47;;;;;;;4.03;2.07;;;;;;;;;;5018532;28;20207;-89
2023/05/24 05:45:16;;;;;;;2.57;2.00;;;;;;;;;;5015800;28;20196;-89
2023/05/24 05:47:44;;;;;;;1.73;1.63;;;;;;;;;;5017670;28;20211;-89
2023/05/24 05:50:16;;;;;;;7.17;3.07;;;;;;;;;;5019978;28;20203;-88
2023/05/24 05:52:44;;;;;;;5.73;2.93;;;;;;;;;;5016609;28;20207;-87
2023/05/24 05:55:14;;;;;;;2.33;1.43;;;;;;;;;;5020349;28;20209;-91
2023/05/24 05:57:43;;;;;;;1.43;1.10;;;;;;;;;;5018772;28;20209;-89
2023/05/24 06:00:12;;;;;;;5.57;2.47;;;;;;;;;;5018441;28;20231;-92
2023/05/24 06:02:44;;;;;;;8.23;2.67;;;;;;;;;;5018290;28;20204;-92
2023/05/24 06:05:14;;;;;;;1.60;0.97;;;;;;;;;;5018958;28;20205;-92
2023/05/24 06:07:56;;;;;;;1.50;1.43;;;;;;;;;;5017926;28;20281;-92
2023/05/24 06:10:26;;;;;;;7.20;2.57;;;;;;;;;;5018464;28;20211;-92
2023/05/24 06:12:57;;;;;;;1.50;1.40;;;;;;;;;;5018317;28;20211;-93
2023/05/24 06:15:26;;;;;;;7.80;2.77;;;;;;;;;;5018980;28;20191;-90
2023/05/24 06:17:55;;;;;;;8.17;2.00;;;;;;;;;;5019192;28;20212;-90
2023/05/24 06:20:24;;;;;;;4.70;2.23;;;;;;;;;;5019545;28;20267;-90
2023/05/24 06:23:00;;;;;;;3.17;2.03;;;;;;;;;;5015715;28;20203;-87
2023/05/24 06:25:39;;;;;;;1.00;1.00;;;;;;;;;;5015512;28;20249;-87
2023/05/24 06:28:16;;;;;;;3.23;1.57;;;;;;;;;;5012902;28;20228;-87
2023/05/24 06:30:45;;;;;;;9.87;2.03;;;;;;;;;;5015311;28;20213;-88
2023/05/24 06:33:27;;;;;;;1.20;1.13;;;;;;;;;;5015051;28;20230;-87
2023/05/24 06:35:55;;;;;;;1.83;1.60;;;;;;;;;;5015302;28;20209;-87
2023/05/24 06:38:24;;;;;;;10.73;2.93;;;;;;;;;;5015444;28;20216;-87
2023/05/24 06:41:07;;;;;;;2.00;1.30;;;;;;;;;;5014785;28;20312;-88
2023/05/24 06:43:48;;;;;;;4.93;1.23;;;;;;;;;;5014721;28;20201;-88
2023/05/24 06:46:20;;;;;;;2.37;1.73;;;;;;;;;;5015086;28;20205;-88
2023/05/24 06:48:52;;;;;;;5.93;2.33;;;;;;;;;;5014925;28;20202;-85
2023/05/24 06:51:21;;;;;;;13.97;2.73;;;;;;;;;;5014911;28;20204;-87
2023/05/24 06:53:52;;;;;;;2.87;2.33;;;;;;;;;;5015520;28;20270;-87
2023/05/24 06:56:53;;;;;;;3.00;2.17;;;;;;;;;;5015438;28;20207;-89
2023/05/24 06:59:56;;;;;;;6.27;1.73;;;;;;;;;;5014610;28;20328;-89
2023/05/24 07:13:16;;;;;;;2.70;1.93;;;;;;;;;;4823102;29;20217;-92
2023/05/24 07:16:32;;;;;;;0.77;0.77;;;;;;;;;;4774455;30;20218;-93
2023/05/24 07:19:42;;;;;;;1.33;1.33;;;;;;;;;;4767447;29;20238;-94
2023/05/24 07:22:14;;;;;;;8.57;2.33;;;;;;;;;;4828771;29;20227;-94
2023/05/24 07:24:46;;;;;;;2.20;1.80;;;;;;;;;;4877719;29;20239;-94
2023/05/24 07:27:15;;;;;;;1.60;1.27;;;;;;;;;;4871787;29;20278;-94
2023/05/24 07:29:49;;;;;;;1.23;1.23;;;;;;;;;;4876385;29;20222;-93
2023/05/24 07:32:22;;;;;;;2.20;1.43;;;;;;;;;;4879025;29;20204;-94
2023/05/24 07:35:11;;;;;;;1.00;1.00;;;;;;;;;;4876035;29;20207;-93
2023/05/24 07:38:00;;;;;;;2.93;2.63;;;;;;;;;;4836552;29;20244;-94
2023/05/24 07:40:40;;;;;;;0.80;0.80;;;;;;;;;;4880832;29;20249;-93
2023/05/24 07:43:25;;;;;;;4.87;2.13;;;;;;;;;;4904970;29;20312;-94
2023/05/24 07:46:27;;;;;;;;;;;;;;;;;;;;;
2023/05/24 07:58:13;;;;;;;2.57;1.27;;;;;;;;;;5030873;28;20210;-95
2023/05/24 08:04:14;;;;;;;3.10;1.70;;;;;;;;;;5009139;28;20294;-93
2023/05/24 08:07:13;;;;;;;8.20;3.20;;;;;;;;;;5007177;28;20222;-92
2023/05/24 08:17:02;;;;;;;3.10;2.20;;;;;;;;;;4933834;28;20209;-96
2023/05/24 08:26:34;;;;;;;2.60;1.37;;;;;;;;;;4940507;29;20324;-94
2023/05/24 08:32:56;;;;;;;2.73;1.10;;;;;;;;;;4935089;29;20196;-91
2023/05/24 08:36:21;;;;;;;4.20;2.47;;;;;;;;;;4910562;29;20198;-93
2023/05/24 08:39:08;;;;;;;5.27;2.40;;;;;;;;;;4925263;29;20214;-92
2023/05/24 08:41:44;;;;;;;3.80;1.77;;;;;;;;;;4935509;29;20233;-90
2023/05/24 08:44:43;;;;;;;2.67;2.00;;;;;;;;;;4933358;29;20221;-95
2023/05/24 08:54:43;;;;;;;0.70;0.70;;;;;;;;;;4994832;28;20262;-95
2023/05/24 08:57:29;;;;;;;2.47;1.00;;;;;;;;;;5012065;28;20210;-91
2023/05/24 09:00:07;;;;;;;2.27;1.13;;;;;;;;;;5006415;28;20219;-88
2023/05/24 09:06:24;;;;;;;1.10;1.10;;;;;;;;;;4997988;28;20215;-94
2023/05/24 09:09:25;;;;;;;2.03;1.40;;;;;;;;;;5006892;28;20209;-91
2023/05/24 09:12:11;;;;;;;2.03;1.47;;;;;;;;;;5002813;28;20222;-89
2023/05/24 09:15:16;;;;;;;2.53;1.77;;;;;;;;;;5006754;28;20260;-92
2023/05/24 09:18:29;;;;;;;4.57;1.40;;;;;;;;;;4986004;28;20212;-90
2023/05/24 09:21:07;;;;;;;0.93;0.93;;;;;;;;;;4995321;28;20215;-90
2023/05/24 09:23:57;;;;;;;5.53;2.40;;;;;;;;;;5006208;28;20212;-91
2023/05/24 09:33:12;;;;;;;1.57;1.47;;;;;;;;;;4873439;29;20210;-93
2023/05/24 09:36:23;;;;;;;4.47;1.53;;;;;;;;;;4920999;29;20275;-93
2023/05/24 09:39:19;;;;;;;;;;;;;;;;;;;;;
2023/05/24 09:49:05;;;;;;;0.50;0.50;;;;;;;;;;4940839;29;20231;-91
2023/05/24 09:52:18;;;;;;;1.93;1.70;;;;;;;;;;4982480;28;20196;-93
2023/05/24 10:06:36;;;;;;;;;;;;;;;;;;;;;
2023/05/24 10:29:24;;;;;;;5.87;1.83;;;;;;;;;;4824035;29;20268;-92
2023/05/24 10:32:06;;;;;;;1.70;1.10;;;;;;;;;;4890301;29;20206;-91
2023/05/24 10:34:52;;;;;;;6.10;2.53;;;;;;;;;;4921888;29;20245;-91
2023/05/24 10:37:36;;;;;;;0.70;0.70;;;;;;;;;;4911714;29;20223;-91
2023/05/24 10:40:31;;;;;;;2.70;1.97;;;;;;;;;;4916176;29;20211;-91
2023/05/24 10:43:26;;;;;;;2.40;2.27;;;;;;;;;;4977374;28;20195;-90
2023/05/24 10:46:25;;;;;;;4.20;1.80;;;;;;;;;;5014968;28;20216;-90
2023/05/24 10:49:04;;;;;;;2.97;0.90;;;;;;;;;;5015205;28;20196;-91
2023/05/24 10:51:49;;;;;;;2.93;1.67;;;;;;;;;;5015596;28;20208;-90
2023/05/24 10:54:33;;;;;;;2.10;1.90;;;;;;;;;;5015244;28;20215;-91
2023/05/24 10:57:09;;;;;;;3.57;2.00;;;;;;;;;;5015078;28;20230;-91
2023/05/24 11:00:26;;;;;;;1.93;0.80;;;;;;;;;;5015128;28;20298;-91
2023/05/24 11:03:22;;;;;;;6.30;3.37;;;;;;;;;;5015592;28;20291;-91
2023/05/24 11:05:58;;;;;;;2.07;1.93;;;;;;;;;;5015565;28;20204;-91
2023/05/24 11:08:52;;;;;;;0.60;0.60;;;;;;;;;;5011201;28;20217;-91
2023/05/24 11:11:40;;;;;;;5.67;5.03;;;;;;;;;;5015081;28;20208;-91
2023/05/24 11:14:18;;;;;;;2.03;1.40;;;;;;;;;;5013102;28;20201;-91
2023/05/24 11:16:54;;;;;;;3.23;1.43;;;;;;;;;;5015834;28;20230;-90
2023/05/24 11:19:34;;;;;;;2.07;1.87;;;;;;;;;;5012641;28;20195;-90
2023/05/24 11:22:09;;;;;;;5.17;3.20;;;;;;;;;;5004723;28;20217;-92
2023/05/24 11:24:48;;;;;;;7.60;2.53;;;;;;;;;;5011754;28;20215;-90
2023/05/24 11:27:27;;;;;;;1.67;1.57;;;;;;;;;;5004354;28;20219;-92
2023/05/24 11:30:05;;;;;;;4.97;2.13;;;;;;;;;;5008720;28;20227;-91
2023/05/24 11:33:13;;;;;;;2.37;2.13;;;;;;;;;;5008062;28;20288;-90
2023/05/24 11:36:03;;;;;;;3.37;1.40;;;;;;;;;;5009619;28;20198;-91
2023/05/24 12:41:41;;;;;;;3.10;1.53;;;;;;;;;;5515927;22;16336817;-92
2023/05/24 12:44:33;;;;;;;4.73;2.10;;;;;;;;;;6194057;23;20185;-91
2023/05/24 12:51:12;;;;;;;1.93;1.83;;;;;;;;;;6143213;23;20201;-91
2023/05/24 13:07:21;;;;;;;5.37;2.53;;;;;;;;;;6190415;23;20179;-92
2023/05/24 13:10:27;;;;;;;2.03;1.50;;;;;;;;;;6192763;23;20190;-93
2023/05/24 13:13:02;;;;;;;0.70;0.70;;;;;;;;;;6193574;23;20194;-92
2023/05/24 13:15:44;;;;;;;0.83;0.83;;;;;;;;;;6190719;23;20197;-91
2023/05/24 13:18:33;;;;;;;4.70;1.87;;;;;;;;;;6193853;23;20179;-93
2023/05/24 13:24:30;;;;;;;0.50;0.50;;;;;;;;;;6185660;23;20235;-91
2023/05/24 13:27:22;;;;;;;3.93;2.17;;;;;;;;;;6187587;23;20249;-92
2023/05/24 13:30:12;;;;;;;0.70;0.70;;;;;;;;;;6185954;23;20180;-92
2023/05/24 13:33:04;;;;;;;0.70;0.70;;;;;;;;;;6186066;23;20231;-92
2023/05/24 13:36:08;;;;;;;1.17;1.17;;;;;;;;;;6182455;23;20182;-92
2023/05/24 13:38:47;;;;;;;5.17;2.47;;;;;;;;;;6186518;23;20176;-91
2023/05/24 13:44:54;;;;;;;1.00;1.00;;;;;;;;;;6213235;23;20253;-91
2023/05/24 13:47:33;;;;;;;3.93;2.70;;;;;;;;;;6211906;23;20181;-92
2023/05/24 13:50:11;;;;;;;1.80;1.70;;;;;;;;;;6211623;23;20174;-92
2023/05/24 13:52:49;;;;;;;5.40;2.73;;;;;;;;;;6212290;23;20174;-91
2023/05/24 13:55:49;;;;;;;1.30;1.23;;;;;;;;;;6205750;23;20186;-89
2023/05/24 13:58:35;;;;;;;2.57;2.30;;;;;;;;;;6212225;23;20178;-89
2023/05/24 14:01:07;;;;;;;2.47;1.67;;;;;;;;;;6210724;23;20179;-90
2023/05/24 14:03:43;;;;;;;2.83;1.57;;;;;;;;;;6211380;23;20175;-90
2023/05/24 14:06:18;;;;;;;2.50;1.67;;;;;;;;;;6211482;23;20182;-89
2023/05/24 14:08:53;;;;;;;3.10;1.73;;;;;;;;;;6212041;23;20178;-90
2023/05/24 14:11:58;;;;;;;1.30;1.23;;;;;;;;;;6209044;23;20216;-91
2023/05/24 14:14:28;;;;;;;2.70;1.63;;;;;;;;;;6204824;23;20255;-91
2023/05/24 14:23:55;;;;;;;3.07;2.03;;;;;;;;;;6186369;23;20256;-89
2023/05/24 14:26:53;;;;;;;;;;;;;;;;;;;;;
2023/05/24 14:29:35;;;;;;;10.37;2.63;;;;;;;;;;6132967;23;20214;-88
2023/05/24 14:32:06;;;;;;;2.70;2.50;;;;;;;;;;6209078;23;20261;-87
2023/05/24 14:35:08;;;;;;;2.47;1.77;;;;;;;;;;6115306;23;20272;-89
2023/05/24 14:37:47;;;;;;;1.93;1.37;;;;;;;;;;6116703;23;20188;-87
2023/05/24 14:40:18;;;;;;;5.50;2.03;;;;;;;;;;6114242;23;20215;-88
2023/05/24 14:42:54;;;;;;;5.27;2.20;;;;;;;;;;6180975;23;20178;-87
2023/05/24 14:45:29;;;;;;;6.27;2.60;;;;;;;;;;6208915;23;20181;-87
2023/05/24 14:48:01;;;;;;;3.73;1.83;;;;;;;;;;6210047;23;20193;-88
2023/05/24 14:50:33;;;;;;;2.10;1.90;;;;;;;;;;6208260;23;20175;-87
2023/05/24 14:53:08;;;;;;;1.63;1.53;;;;;;;;;;6209050;23;20207;-87
2023/05/24 14:55:39;;;;;;;6.47;2.57;;;;;;;;;;6206948;23;20178;-88
2023/05/24 14:58:11;;;;;;;6.60;2.10;;;;;;;;;;6208904;23;20174;-88
2023/05/24 15:00:41;;;;;;;5.83;2.60;;;;;;;;;;6208301;23;20185;-88
2023/05/24 15:03:11;;;;;;;12.57;2.17;;;;;;;;;;6210130;23;20186;-88
2023/05/24 15:05:42;;;;;;;2.93;2.20;;;;;;;;;;6209189;23;20184;-86
2023/05/24 15:08:28;;;;;;;3.37;1.57;;;;;;;;;;6212326;23;20185;-87
2023/05/24 15:10:57;;;;;;;2.43;1.40;;;;;;;;;;6212978;23;20275;-86
2023/05/24 15:13:33;;;;;;;4.40;1.60;;;;;;;;;;6212624;23;20178;-89
2023/05/24 15:16:08;;;;;;;5.03;1.77;;;;;;;;;;6210197;23;20183;-88
2023/05/24 15:18:36;;;;;;;6.53;2.93;;;;;;;;;;6210465;23;20184;-88
2023/05/24 15:21:07;;;;;;;5.57;2.10;;;;;;;;;;6208534;23;20184;-88
2023/05/24 15:23:38;;;;;;;2.90;2.17;;;;;;;;;;6210235;23;20228;-88
2023/05/24 15:26:07;;;;;;;1.60;1.17;;;;;;;;;;6210948;23;20178;-88
2023/05/24 15:28:35;;;;;;;4.17;1.57;;;;;;;;;;6209109;23;20198;-89
2023/05/24 15:31:05;;;;;;;5.60;1.80;;;;;;;;;;6208621;23;20185;-91
2023/05/24 15:33:33;;;;;;;3.30;2.80;;;;;;;;;;6208412;23;20246;-89
2023/05/24 15:36:02;;;;;;;3.90;1.87;;;;;;;;;;6209078;23;20175;-89
2023/05/24 15:38:33;;;;;;;2.90;1.77;;;;;;;;;;6208330;23;20174;-89
2023/05/24 15:41:02;;;;;;;3.20;1.90;;;;;;;;;;6208990;23;20298;-88
2023/05/24 15:43:31;;;;;;;1.83;1.00;;;;;;;;;;6209501;23;20183;-88
2023/05/24 15:46:00;;;;;;;3.13;2.10;;;;;;;;;;6209105;23;20199;-87
2023/05/24 15:48:29;;;;;;;3.73;1.87;;;;;;;;;;6208637;23;20208;-88
2023/05/24 15:50:58;;;;;;;1.50;1.40;;;;;;;;;;6208337;23;20237;-88
2023/05/24 15:53:48;;;;;;;0.90;0.90;;;;;;;;;;6208681;23;20179;-85
2023/05/24 15:56:19;;;;;;;10.23;2.17;;;;;;;;;;6205704;23;20196;-86
2023/05/24 15:58:50;;;;;;;2.67;2.03;;;;;;;;;;6209491;23;20191;-83
2023/05/24 16:01:21;;;;;;;4.97;1.73;;;;;;;;;;6209342;23;20185;-86
2023/05/24 16:03:50;;;;;;;1.57;1.30;;;;;;;;;;6208587;23;20245;-85
2023/05/24 16:06:19;;;;;;;6.20;2.37;;;;;;;;;;6208301;23;20185;-86
2023/05/24 16:08:51;;;;;;;1.00;1.00;;;;;;;;;;6208725;23;20188;-85
2023/05/24 16:11:20;;;;;;;4.13;1.97;;;;;;;;;;6208116;23;20183;-86
2023/05/24 16:13:53;;;;;;;4.40;1.43;;;;;;;;;;6206492;23;20194;-85
2023/05/24 16:16:23;;;;;;;2.17;1.83;;;;;;;;;;6206633;23;20186;-85
2023/05/24 16:19:07;;;;;;;5.93;1.20;;;;;;;;;;6208182;23;20172;-84
2023/05/24 16:21:36;;;;;;;9.40;2.07;;;;;;;;;;6208728;23;20205;-85
2023/05/24 16:24:14;;;;;;;4.80;2.10;;;;;;;;;;6209200;23;20179;-85
2023/05/24 16:26:51;;;;;;;5.50;2.70;;;;;;;;;;6208447;23;20188;-85
2023/05/24 16:29:20;;;;;;;1.67;1.57;;;;;;;;;;6207999;23;20237;-85
2023/05/24 16:31:53;;;;;;;3.60;1.37;;;;;;;;;;6208597;23;20182;-82
2023/05/24 16:34:25;;;;;;;3.43;1.43;;;;;;;;;;6208609;23;20182;-82
2023/05/24 16:36:56;;;;;;;6.03;1.97;;;;;;;;;;6208392;23;20182;-82
2023/05/24 16:39:27;;;;;;;1.60;1.13;;;;;;;;;;6208342;23;20215;-85
2023/05/24 16:41:57;;;;;;;4.77;2.47;;;;;;;;;;6208282;23;20174;-85
2023/05/24 16:44:33;;;;;;;0.70;0.70;;;;;;;;;;6208242;23;20208;-86
2023/05/24 16:47:16;;;;;;;2.20;0.90;;;;;;;;;;6206332;23;20175;-87
2023/05/24 16:49:57;;;;;;;5.97;1.93;;;;;;;;;;6208340;23;20206;-87
2023/05/24 16:52:37;;;;;;;1.80;1.70;;;;;;;;;;6211218;23;20210;-86
2023/05/24 16:55:12;;;;;;;6.57;1.80;;;;;;;;;;6205453;23;20178;-87
2023/05/24 16:57:41;;;;;;;4.63;2.20;;;;;;;;;;6207345;23;20181;-86
2023/05/24 17:00:30;;;;;;;7.10;2.20;;;;;;;;;;6207387;23;20191;-86
2023/05/24 17:03:00;;;;;;;7.23;2.20;;;;;;;;;;6207850;23;20182;-88
2023/05/24 17:05:49;;;;;;;1.33;1.27;;;;;;;;;;6205983;23;20182;-88
2023/05/24 17:08:26;;;;;;;5.80;1.93;;;;;;;;;;6205933;23;20186;-87
2023/05/24 17:10:57;;;;;;;1.10;1.07;;;;;;;;;;6207589;23;20179;-88
2023/05/24 17:13:30;;;;;;;5.33;2.47;;;;;;;;;;6207431;23;20202;-87
2023/05/24 17:19:05;;;;;;;2.90;2.33;;;;;;;;;;6207967;23;20181;-88
2023/05/24 17:21:37;;;;;;;3.47;2.97;;;;;;;;;;6207375;23;20204;-88
2023/05/24 17:24:14;;;;;;;5.93;1.80;;;;;;;;;;6208007;23;20225;-89
2023/05/24 17:26:48;;;;;;;5.77;1.40;;;;;;;;;;6207392;23;20171;-88
2023/05/24 17:29:18;;;;;;;1.67;1.57;;;;;;;;;;6208204;23;20177;-89
2023/05/24 17:31:56;;;;;;;2.50;1.37;;;;;;;;;;6207411;23;20190;-89
2023/05/24 17:34:26;;;;;;;1.97;1.50;;;;;;;;;;6205907;23;20175;-88
2023/05/24 17:37:03;;;;;;;2.50;2.17;;;;;;;;;;6206672;23;20183;-86
2023/05/24 17:39:32;;;;;;;4.67;1.67;;;;;;;;;;6207019;23;20268;-85
2023/05/24 17:42:05;;;;;;;4.93;2.13;;;;;;;;;;6207180;23;20187;-85
2023/05/24 17:44:37;;;;;;;5.40;1.73;;;;;;;;;;6206728;23;20203;-85
2023/05/24 17:47:11;;;;;;;10.93;2.33;;;;;;;;;;6207027;23;20177;-85
2023/05/24 17:49:50;;;;;;;4.83;0.90;;;;;;;;;;6206296;23;20176;-85
2023/05/24 17:52:19;;;;;;;4.57;2.03;;;;;;;;;;6205658;23;20184;-86
2023/05/24 17:54:49;;;;;;;7.23;1.60;;;;;;;;;;6206551;23;20178;-86
2023/05/24 17:57:23;;;;;;;1.40;1.30;;;;;;;;;;6181134;23;20191;-85
2023/05/24 18:00:06;;;;;;;1.97;1.50;;;;;;;;;;6203443;23;20175;-85
2023/05/24 18:02:37;;;;;;;1.77;1.13;;;;;;;;;;6206937;23;20177;-85
2023/05/24 18:05:12;;;;;;;1.30;1.20;;;;;;;;;;6206047;23;20185;-85
2023/05/24 18:07:45;;;;;;;1.80;1.60;;;;;;;;;;6205645;23;20193;-85
2023/05/24 18:10:26;;;;;;;1.93;1.70;;;;;;;;;;6202932;23;20198;-85
2023/05/24 18:13:07;;;;;;;3.77;1.37;;;;;;;;;;6180501;23;20243;-86
2023/05/24 18:15:36;;;;;;;3.67;1.63;;;;;;;;;;6206768;23;20224;-88
2023/05/24 18:18:06;;;;;;;5.73;1.00;;;;;;;;;;6215080;23;20175;-88
2023/05/24 18:20:38;;;;;;;6.13;2.73;;;;;;;;;;6216096;23;20197;-88
2023/05/24 18:23:07;;;;;;;1.40;1.17;;;;;;;;;;6215893;23;20187;-88
2023/05/24 18:29:01;;;;;;;1.23;1.13;;;;;;;;;;6214143;23;20166;-88
2023/05/24 18:31:30;;;;;;;3.23;1.40;;;;;;;;;;6214113;23;20191;-88
2023/05/24 18:33:59;;;;;;;8.23;1.87;;;;;;;;;;6215086;23;20186;-88
2023/05/24 18:36:29;;;;;;;4.97;1.60;;;;;;;;;;6188160;23;20257;-87
2023/05/24 18:39:01;;;;;;;4.47;1.77;;;;;;;;;;6214688;23;20174;-87
2023/05/24 18:41:30;;;;;;;5.77;1.70;;;;;;;;;;6214462;23;20213;-87
2023/05/24 18:44:02;;;;;;;1.27;1.13;;;;;;;;;;6214480;23;20201;-85
2023/05/24 18:46:32;;;;;;;3.93;1.93;;;;;;;;;;6214168;23;20224;-84
2023/05/24 18:49:02;;;;;;;2.30;1.13;;;;;;;;;;6213947;23;20171;-85
2023/05/24 18:51:32;;;;;;;2.20;2.00;;;;;;;;;;6214529;23;20205;-85